Svartfoss — V2PR3 — position and weather

sailwx.info

Track history (hours):
 
Tides and Currents Weather Stations Pressure Air Temp Water Temp Dewpoint Dewpoint Depression Visibility Wind Speed Wind Dir Waves Ship Positions

Svartfoss

Last reported at 2016-Dec-10 04:33 UTC. Time now 2016-Dec-11 04:26 UTC.
Position N 59°47' E 005°34'.

Length 80 m; draft 5.7 m.

Type: Cargo ship. MMSI: 304882000.

Date/timePositionNaut miles runAvg speedWind from/ knotsBaromVisibWave heightAir tempDewpointWater temp
2016-Dec-10 04:33N 59°47' E 005°34'3213.7
2016-Dec-10 02:13N 59°16' E 005°20'914.2
2016-Dec-10 01:33N 59°07' E 005°27'1414.0
2016-Dec-10 00:33N 58°54' E 005°32'1514.9
2016-Dec-09 23:33N 58°39' E 005°25'26514.7
2016-Dec-09 05:32N 54°15' E 005°07'1414.4
2016-Dec-09 04:33N 54°00' E 005°04'6015.0
2016-Dec-09 00:32N 53°04' E 004°31'1515.3
2016-Dec-08 23:33N 52°49' E 004°30'1615.5
2016-Dec-08 22:33N 52°33' E 004°30'6 6.5
2016-Dec-08 21:33N 52°28' E 004°36'2 2.2
2016-Dec-08 20:28N 52°28' E 004°40'0 0.0
2016-Dec-08 19:31N 52°28' E 004°40'0 0.0
2016-Dec-08 18:28N 52°28' E 004°40'0 0.0
2016-Dec-08 17:31N 52°28' E 004°40'0 0.0
2016-Dec-08 16:31N 52°28' E 004°40'0 0.0
2016-Dec-08 15:25N 52°28' E 004°40'0 0.0
2016-Dec-08 14:31N 52°28' E 004°40'0 0.0
2016-Dec-08 13:28N 52°28' E 004°40'0 0.0
2016-Dec-08 12:28N 52°28' E 004°40'0 0.0
2016-Dec-08 11:31N 52°28' E 004°40'2 1.8
2016-Dec-08 10:33N 52°28' E 004°37'2 1.5
2016-Dec-08 09:33N 52°28' E 004°35'1212.2
2016-Dec-08 08:33N 52°29' E 004°15'7615.1
2016-Dec-08 03:30N 52°57' E 002°17'1616.4
2016-Dec-08 02:33N 53°05' E 001°55'1916.5
2016-Dec-08 01:23N 53°12' E 001°25'4716.2
2016-Dec-07 22:30N 53°32' E 000°15'1112.2
2016-Dec-07 21:33N 53°35' W 000°04'1 0.6
2016-Dec-07 20:29N 53°35' W 000°04'0 0.0
2016-Dec-07 19:32N 53°35' W 000°04'0 0.0
2016-Dec-07 18:32N 53°35' W 000°04'0 0.0
2016-Dec-07 17:32N 53°35' W 000°04'0 0.0
2016-Dec-07 16:32N 53°35' W 000°04'0 0.0
2016-Dec-07 15:32N 53°35' W 000°04'0 0.0
2016-Dec-07 14:31N 53°35' W 000°04'0 0.0
2016-Dec-07 13:31N 53°35' W 000°04'0 0.0
2016-Dec-07 12:31N 53°35' W 000°04'0 0.0
2016-Dec-07 11:31N 53°35' W 000°04'0 0.0
2016-Dec-07 10:31N 53°35' W 000°04'0 0.0
2016-Dec-07 09:31N 53°35' W 000°04'0 0.0
2016-Dec-07 08:31N 53°35' W 000°04'0 0.0
2016-Dec-07 07:31N 53°35' W 000°04'0 0.0
2016-Dec-07 06:31N 53°35' W 000°04'0 0.0
2016-Dec-07 05:31N 53°35' W 000°04'0 0.0
2016-Dec-07 04:31N 53°35' W 000°04'0 0.0
2016-Dec-07 03:31N 53°35' W 000°04'0 0.0
2016-Dec-07 02:28N 53°35' W 000°04'0 0.0
2016-Dec-07 01:31N 53°35' W 000°04'0 0.0
2016-Dec-07 00:31N 53°35' W 000°04'0 0.0
2016-Dec-06 23:31N 53°35' W 000°04'0 0.0
2016-Dec-06 22:28N 53°35' W 000°04'0 0.0
2016-Dec-06 21:31N 53°35' W 000°04'0 0.0
2016-Dec-06 20:31N 53°35' W 000°04'0 0.0
2016-Dec-06 18:31N 53°35' W 000°04'0 0.0
2016-Dec-06 17:28N 53°35' W 000°04'0 0.0
2016-Dec-06 16:31N 53°35' W 000°04'0 0.0
2016-Dec-06 15:31N 53°35' W 000°04'0 0.0
2016-Dec-06 14:31N 53°35' W 000°04'0 0.0
2016-Dec-06 13:28N 53°35' W 000°04'0 0.0
2016-Dec-06 12:31N 53°35' W 000°04'0 0.0
2016-Dec-06 11:31N 53°35' W 000°04'0 0.0
2016-Dec-06 10:33N 53°35' W 000°04'0 0.0
2016-Dec-06 09:33N 53°35' W 000°04'0 0.2
2016-Dec-06 08:33N 53°35' W 000°04'7 5.3
2016-Dec-06 07:19N 53°34' E 000°07'60 8.9
2016-Dec-06 00:33N 53°10' E 001°39'9713.8
2016-Dec-05 17:34N 52°31' E 004°06'1514.6
2016-Dec-05 16:33N 52°28' E 004°30'6 5.6
2016-Dec-05 15:33N 52°28' E 004°39'1 0.6
2016-Dec-05 14:31N 52°28' E 004°40'0 0.0
2016-Dec-05 13:31N 52°28' E 004°40'0 0.0
2016-Dec-05 12:31N 52°28' E 004°40'0 0.0
2016-Dec-05 11:31N 52°28' E 004°40'0 0.0
2016-Dec-05 10:31N 52°28' E 004°40'0 0.0
2016-Dec-05 09:31N 52°28' E 004°40'0 0.0
2016-Dec-05 08:31N 52°28' E 004°40'0 0.0
2016-Dec-05 07:31N 52°28' E 004°40'0 0.0
2016-Dec-05 06:31N 52°28' E 004°40'0 0.0
2016-Dec-05 05:31N 52°28' E 004°40'0 0.0
2016-Dec-05 04:31N 52°28' E 004°40'0 0.0
2016-Dec-05 03:31N 52°28' E 004°40'0 0.0
2016-Dec-05 02:31N 52°28' E 004°40'0 0.0
2016-Dec-05 01:31N 52°28' E 004°40'0 0.0
2016-Dec-05 00:31N 52°28' E 004°40'0 0.0
2016-Dec-04 23:31N 52°28' E 004°40'0 0.0
2016-Dec-04 22:31N 52°28' E 004°40'0 0.0
2016-Dec-04 21:31N 52°28' E 004°40'0 0.0
2016-Dec-04 20:31N 52°28' E 004°40'0 0.0
2016-Dec-04 19:31N 52°28' E 004°40'0 0.0
2016-Dec-04 18:31N 52°28' E 004°40'0 0.0
2016-Dec-04 17:31N 52°28' E 004°40'0 0.0
2016-Dec-04 16:31N 52°28' E 004°40'0 0.0
2016-Dec-04 15:31N 52°28' E 004°40'0 0.0
2016-Dec-04 14:31N 52°28' E 004°40'0 0.0
2016-Dec-04 13:34N 52°28' E 004°40'2 1.9
2016-Dec-04 12:33N 52°28' E 004°37'6 5.8
2016-Dec-04 11:33N 52°28' E 004°27'1413.8
2016-Dec-04 10:33N 52°42' E 004°22'1515.5
2016-Dec-04 09:33N 52°57' E 004°29'1413.9
2016-Dec-04 08:33N 53°10' E 004°35'32614.8
2016-Dec-03 10:33N 58°35' E 005°17'1515.3
2016-Dec-03 09:33N 58°50' E 005°18'1514.8
2016-Dec-03 08:33N 59°05' E 005°19'11819.6
2016-Dec-03 02:32N 61°02' E 004°45'10 9.4
2016-Dec-03 01:29N 61°12' E 004°43'7 2.3
2016-Dec-02 22:33N 61°18' E 004°48'10 9.5
2016-Dec-02 21:34N 61°27' E 004°55'20 9.0
2016-Dec-02 19:19N 61°47' E 005°04'7 9.4
2016-Dec-02 18:32N 61°51' E 005°16'6 6.2
2016-Dec-02 17:32N 61°56' E 005°08'401201.8
2016-Dec-02 15:33N 67°34' E 013°39'9 9.0
2016-Dec-02 14:32N 67°36' E 013°15'9 8.9
2016-Dec-02 13:32N 67°37' E 012°52'5 4.5
2016-Dec-02 12:32N 67°39' E 012°42'0 0.0
2016-Dec-02 11:33N 67°39' E 012°42'0 0.0
2016-Dec-02 10:12N 67°39' E 012°42'350538.9
2016-Dec-02 09:33N 62°28' E 006°21'0 0.0
2016-Dec-02 08:33N 62°28' E 006°21'0 0.0
2016-Dec-02 07:33N 62°28' E 006°21'0 0.0
2016-Dec-02 06:31N 62°28' E 006°21'0 0.0
2016-Dec-02 05:33N 62°28' E 006°21'0 0.0
2016-Dec-02 04:32N 62°28' E 006°21'0 0.0
2016-Dec-02 01:13N 62°28' E 006°21'368174.3
2016-Dec-01 23:06N 67°52' E 013°18'5 8.7
2016-Dec-01 22:32N 67°55' E 013°28'9 9.2
2016-Dec-01 21:33N 68°02' E 013°45'9 9.4
2016-Dec-01 20:33N 68°08' E 014°03'1010.0
2016-Dec-01 19:33N 68°17' E 014°16'18 8.7
2016-Dec-01 17:32N 68°30' E 014°48'0 0.0
2016-Dec-01 16:33N 68°30' E 014°48'0 0.0
2016-Dec-01 15:33N 68°30' E 014°48'0 0.0
2016-Dec-01 14:33N 68°30' E 014°48'0 0.0
2016-Dec-01 13:33N 68°30' E 014°48'0 0.0
2016-Dec-01 12:32N 68°30' E 014°48'0 0.0
2016-Dec-01 11:32N 68°30' E 014°48'0 0.0
2016-Dec-01 10:33N 68°30' E 014°48'0 0.0
2016-Dec-01 09:33N 68°30' E 014°48'0 0.0
2016-Dec-01 08:33N 68°30' E 014°48'0 0.0
2016-Dec-01 07:33N 68°30' E 014°48'0 0.0
2016-Dec-01 06:32N 68°30' E 014°48'0 0.0
2016-Dec-01 05:33N 68°30' E 014°48'0 0.0
2016-Dec-01 04:32N 68°30' E 014°48'389396.1
2016-Dec-01 03:33N 62°53' E 006°58'394375.1
2016-Dec-01 02:30N 68°32' E 015°05'385401.2
2016-Dec-01 01:33N 63°01' E 007°07'1313.2
2016-Dec-01 00:33N 63°07' E 007°33'1413.6
2016-Nov-30 23:34N 63°14' E 007°58'377373.0
2016-Nov-30 22:33N 68°45' E 015°25'9 9.3
2016-Nov-30 21:32N 68°54' E 015°23'353359.7
2016-Nov-30 20:34N 63°34' E 009°15'1 1.0
2016-Nov-30 19:33N 63°34' E 009°13'1212.0
2016-Nov-30 18:33N 63°43' E 009°31'1414.3
2016-Nov-30 17:34N 63°55' E 009°47'325320.2
2016-Nov-30 16:33N 68°55' E 015°05'0 0.0
2016-Nov-30 15:34N 68°55' E 015°05'0 0.0
2016-Nov-30 14:33N 68°55' E 015°05'0 0.0
2016-Nov-30 13:33N 68°55' E 015°05'0 0.0
2016-Nov-30 12:32N 68°55' E 015°05'262267.5
2016-Nov-30 11:33N 64°49' E 011°09'3 3.0
2016-Nov-30 10:33N 64°52' E 011°14'0 0.0
2016-Nov-30 09:33N 64°52' E 011°14'0 0.0
2016-Nov-30 08:33N 64°52' E 011°14'5 4.7
2016-Nov-30 07:33N 64°55' E 011°22'1413.6
2016-Nov-30 06:33N 65°04' E 011°45'1514.4
2016-Nov-30 05:29N 65°19' E 011°60'256273.1
2016-Nov-30 04:33N 69°13' E 016°22'  
Track history (hours):
 
Tides and Currents Weather Stations Pressure Air Temp Water Temp Dewpoint Dewpoint Depression Visibility Wind Speed Wind Dir Waves Ship Positions

Svartfoss

Last reported at 2016-Dec-10 04:33 UTC. Time now 2016-Dec-11 04:26 UTC.
Position N 59°47' E 005°34'.

Length 80 m; draft 5.7 m.

Type: Cargo ship. MMSI: 304882000.

Date/timePositionNaut miles runAvg speedWind from/ knotsBaromVisibWave heightAir tempDewpointWater temp
2016-Dec-10 04:33N 59°47' E 005°34'3213.7
2016-Dec-10 02:13N 59°16' E 005°20'914.2
2016-Dec-10 01:33N 59°07' E 005°27'1414.0
2016-Dec-10 00:33N 58°54' E 005°32'1514.9
2016-Dec-09 23:33N 58°39' E 005°25'26514.7
2016-Dec-09 05:32N 54°15' E 005°07'1414.4
2016-Dec-09 04:33N 54°00' E 005°04'6015.0
2016-Dec-09 00:32N 53°04' E 004°31'1515.3
2016-Dec-08 23:33N 52°49' E 004°30'1615.5
2016-Dec-08 22:33N 52°33' E 004°30'6 6.5
2016-Dec-08 21:33N 52°28' E 004°36'2 2.2
2016-Dec-08 20:28N 52°28' E 004°40'0 0.0
2016-Dec-08 19:31N 52°28' E 004°40'0 0.0
2016-Dec-08 18:28N 52°28' E 004°40'0 0.0
2016-Dec-08 17:31N 52°28' E 004°40'0 0.0
2016-Dec-08 16:31N 52°28' E 004°40'0 0.0
2016-Dec-08 15:25N 52°28' E 004°40'0 0.0
2016-Dec-08 14:31N 52°28' E 004°40'0 0.0
2016-Dec-08 13:28N 52°28' E 004°40'0 0.0
2016-Dec-08 12:28N 52°28' E 004°40'0 0.0
2016-Dec-08 11:31N 52°28' E 004°40'2 1.8
2016-Dec-08 10:33N 52°28' E 004°37'2 1.5
2016-Dec-08 09:33N 52°28' E 004°35'1212.2
2016-Dec-08 08:33N 52°29' E 004°15'7615.1
2016-Dec-08 03:30N 52°57' E 002°17'1616.4
2016-Dec-08 02:33N 53°05' E 001°55'1916.5
2016-Dec-08 01:23N 53°12' E 001°25'4716.2
2016-Dec-07 22:30N 53°32' E 000°15'1112.2
2016-Dec-07 21:33N 53°35' W 000°04'1 0.6
2016-Dec-07 20:29N 53°35' W 000°04'0 0.0
2016-Dec-07 19:32N 53°35' W 000°04'0 0.0
2016-Dec-07 18:32N 53°35' W 000°04'0 0.0
2016-Dec-07 17:32N 53°35' W 000°04'0 0.0
2016-Dec-07 16:32N 53°35' W 000°04'0 0.0
2016-Dec-07 15:32N 53°35' W 000°04'0 0.0
2016-Dec-07 14:31N 53°35' W 000°04'0 0.0
2016-Dec-07 13:31N 53°35' W 000°04'0 0.0
2016-Dec-07 12:31N 53°35' W 000°04'0 0.0
2016-Dec-07 11:31N 53°35' W 000°04'0 0.0
2016-Dec-07 10:31N 53°35' W 000°04'0 0.0
2016-Dec-07 09:31N 53°35' W 000°04'0 0.0
2016-Dec-07 08:31N 53°35' W 000°04'0 0.0
2016-Dec-07 07:31N 53°35' W 000°04'0 0.0
2016-Dec-07 06:31N 53°35' W 000°04'0 0.0
2016-Dec-07 05:31N 53°35' W 000°04'0 0.0
2016-Dec-07 04:31N 53°35' W 000°04'0 0.0
2016-Dec-07 03:31N 53°35' W 000°04'0 0.0
2016-Dec-07 02:28N 53°35' W 000°04'0 0.0
2016-Dec-07 01:31N 53°35' W 000°04'0 0.0
2016-Dec-07 00:31N 53°35' W 000°04'0 0.0
2016-Dec-06 23:31N 53°35' W 000°04'0 0.0
2016-Dec-06 22:28N 53°35' W 000°04'0 0.0
2016-Dec-06 21:31N 53°35' W 000°04'0 0.0
2016-Dec-06 20:31N 53°35' W 000°04'0 0.0
2016-Dec-06 18:31N 53°35' W 000°04'0 0.0
2016-Dec-06 17:28N 53°35' W 000°04'0 0.0
2016-Dec-06 16:31N 53°35' W 000°04'0 0.0
2016-Dec-06 15:31N 53°35' W 000°04'0 0.0
2016-Dec-06 14:31N 53°35' W 000°04'0 0.0
2016-Dec-06 13:28N 53°35' W 000°04'0 0.0
2016-Dec-06 12:31N 53°35' W 000°04'0 0.0
2016-Dec-06 11:31N 53°35' W 000°04'0 0.0
2016-Dec-06 10:33N 53°35' W 000°04'0 0.0
2016-Dec-06 09:33N 53°35' W 000°04'0 0.2
2016-Dec-06 08:33N 53°35' W 000°04'7 5.3
2016-Dec-06 07:19N 53°34' E 000°07'60 8.9
2016-Dec-06 00:33N 53°10' E 001°39'9713.8
2016-Dec-05 17:34N 52°31' E 004°06'1514.6
2016-Dec-05 16:33N 52°28' E 004°30'6 5.6
2016-Dec-05 15:33N 52°28' E 004°39'1 0.6
2016-Dec-05 14:31N 52°28' E 004°40'0 0.0
2016-Dec-05 13:31N 52°28' E 004°40'0 0.0
2016-Dec-05 12:31N 52°28' E 004°40'0 0.0
2016-Dec-05 11:31N 52°28' E 004°40'0 0.0
2016-Dec-05 10:31N 52°28' E 004°40'0 0.0
2016-Dec-05 09:31N 52°28' E 004°40'0 0.0
2016-Dec-05 08:31N 52°28' E 004°40'0 0.0
2016-Dec-05 07:31N 52°28' E 004°40'0 0.0
2016-Dec-05 06:31N 52°28' E 004°40'0 0.0
2016-Dec-05 05:31N 52°28' E 004°40'0 0.0
2016-Dec-05 04:31N 52°28' E 004°40'0 0.0
2016-Dec-05 03:31N 52°28' E 004°40'0 0.0
2016-Dec-05 02:31N 52°28' E 004°40'0 0.0
2016-Dec-05 01:31N 52°28' E 004°40'0 0.0
2016-Dec-05 00:31N 52°28' E 004°40'0 0.0
2016-Dec-04 23:31N 52°28' E 004°40'0 0.0
2016-Dec-04 22:31N 52°28' E 004°40'0 0.0
2016-Dec-04 21:31N 52°28' E 004°40'0 0.0
2016-Dec-04 20:31N 52°28' E 004°40'0 0.0
2016-Dec-04 19:31N 52°28' E 004°40'0 0.0
2016-Dec-04 18:31N 52°28' E 004°40'0 0.0
2016-Dec-04 17:31N 52°28' E 004°40'0 0.0
2016-Dec-04 16:31N 52°28' E 004°40'0 0.0
2016-Dec-04 15:31N 52°28' E 004°40'0 0.0
2016-Dec-04 14:31N 52°28' E 004°40'0 0.0
2016-Dec-04 13:34N 52°28' E 004°40'2 1.9
2016-Dec-04 12:33N 52°28' E 004°37'6 5.8
2016-Dec-04 11:33N 52°28' E 004°27'1413.8
2016-Dec-04 10:33N 52°42' E 004°22'1515.5
2016-Dec-04 09:33N 52°57' E 004°29'1413.9
2016-Dec-04 08:33N 53°10' E 004°35'32614.8
2016-Dec-03 10:33N 58°35' E 005°17'1515.3
2016-Dec-03 09:33N 58°50' E 005°18'1514.8
2016-Dec-03 08:33N 59°05' E 005°19'11819.6
2016-Dec-03 02:32N 61°02' E 004°45'10 9.4
2016-Dec-03 01:29N 61°12' E 004°43'7 2.3
2016-Dec-02 22:33N 61°18' E 004°48'10 9.5
2016-Dec-02 21:34N 61°27' E 004°55'20 9.0
2016-Dec-02 19:19N 61°47' E 005°04'7 9.4
2016-Dec-02 18:32N 61°51' E 005°16'6 6.2
2016-Dec-02 17:32N 61°56' E 005°08'401201.8
2016-Dec-02 15:33N 67°34' E 013°39'9 9.0
2016-Dec-02 14:32N 67°36' E 013°15'9 8.9
2016-Dec-02 13:32N 67°37' E 012°52'5 4.5
2016-Dec-02 12:32N 67°39' E 012°42'0 0.0
2016-Dec-02 11:33N 67°39' E 012°42'0 0.0
2016-Dec-02 10:12N 67°39' E 012°42'350538.9
2016-Dec-02 09:33N 62°28' E 006°21'0 0.0
2016-Dec-02 08:33N 62°28' E 006°21'0 0.0
2016-Dec-02 07:33N 62°28' E 006°21'0 0.0
2016-Dec-02 06:31N 62°28' E 006°21'0 0.0
2016-Dec-02 05:33N 62°28' E 006°21'0 0.0
2016-Dec-02 04:32N 62°28' E 006°21'0 0.0
2016-Dec-02 01:13N 62°28' E 006°21'368174.3
2016-Dec-01 23:06N 67°52' E 013°18'5 8.7
2016-Dec-01 22:32N 67°55' E 013°28'9 9.2
2016-Dec-01 21:33N 68°02' E 013°45'9 9.4
2016-Dec-01 20:33N 68°08' E 014°03'1010.0
2016-Dec-01 19:33N 68°17' E 014°16'18 8.7
2016-Dec-01 17:32N 68°30' E 014°48'0 0.0
2016-Dec-01 16:33N 68°30' E 014°48'0 0.0
2016-Dec-01 15:33N 68°30' E 014°48'0 0.0
2016-Dec-01 14:33N 68°30' E 014°48'0 0.0
2016-Dec-01 13:33N 68°30' E 014°48'0 0.0
2016-Dec-01 12:32N 68°30' E 014°48'0 0.0
2016-Dec-01 11:32N 68°30' E 014°48'0 0.0
2016-Dec-01 10:33N 68°30' E 014°48'0 0.0
2016-Dec-01 09:33N 68°30' E 014°48'0 0.0
2016-Dec-01 08:33N 68°30' E 014°48'0 0.0
2016-Dec-01 07:33N 68°30' E 014°48'0 0.0
2016-Dec-01 06:32N 68°30' E 014°48'0 0.0
2016-Dec-01 05:33N 68°30' E 014°48'0 0.0
2016-Dec-01 04:32N 68°30' E 014°48'389396.1
2016-Dec-01 03:33N 62°53' E 006°58'394375.1
2016-Dec-01 02:30N 68°32' E 015°05'385401.2
2016-Dec-01 01:33N 63°01' E 007°07'1313.2
2016-Dec-01 00:33N 63°07' E 007°33'1413.6
2016-Nov-30 23:34N 63°14' E 007°58'377373.0
2016-Nov-30 22:33N 68°45' E 015°25'9 9.3
2016-Nov-30 21:32N 68°54' E 015°23'353359.7
2016-Nov-30 20:34N 63°34' E 009°15'1 1.0
2016-Nov-30 19:33N 63°34' E 009°13'1212.0
2016-Nov-30 18:33N 63°43' E 009°31'1414.3
2016-Nov-30 17:34N 63°55' E 009°47'325320.2
2016-Nov-30 16:33N 68°55' E 015°05'0 0.0
2016-Nov-30 15:34N 68°55' E 015°05'0 0.0
2016-Nov-30 14:33N 68°55' E 015°05'0 0.0
2016-Nov-30 13:33N 68°55' E 015°05'0 0.0
2016-Nov-30 12:32N 68°55' E 015°05'262267.5
2016-Nov-30 11:33N 64°49' E 011°09'3 3.0
2016-Nov-30 10:33N 64°52' E 011°14'0 0.0
2016-Nov-30 09:33N 64°52' E 011°14'0 0.0
2016-Nov-30 08:33N 64°52' E 011°14'5 4.7
2016-Nov-30 07:33N 64°55' E 011°22'1413.6
2016-Nov-30 06:33N 65°04' E 011°45'1514.4
2016-Nov-30 05:29N 65°19' E 011°60'256273.1
2016-Nov-30 04:33N 69°13' E 016°22'  

Dump ship's entire track history